createdAt,value
2018-08-24T00:04:15.077Z,25.86
2018-08-24T00:09:10.900Z,25.90
2018-08-24T00:14:03.443Z,25.87
2018-08-24T00:18:55.943Z,25.81
2018-08-24T00:23:48.438Z,25.77
2018-08-24T00:28:40.967Z,25.75
2018-08-24T00:33:33.484Z,25.75
2018-08-24T00:38:25.963Z,25.66
2018-08-24T00:43:18.457Z,25.54
2018-08-24T00:48:10.917Z,25.48
2018-08-24T00:53:03.351Z,25.43
2018-08-24T00:57:55.938Z,25.32
2018-08-24T01:02:48.538Z,25.24
2018-08-24T01:07:47.157Z,25.15
2018-08-24T01:12:39.656Z,25.13
2018-08-24T01:17:37.950Z,25.07
2018-08-24T01:22:30.475Z,24.95
2018-08-24T01:27:22.968Z,24.94
2018-08-24T01:32:15.403Z,24.90
2018-08-24T01:37:07.887Z,24.84
2018-08-24T01:42:00.323Z,24.87
2018-08-24T01:46:52.859Z,24.94
2018-08-24T01:51:45.402Z,25.00
2018-08-24T01:56:37.912Z,24.93
2018-08-24T02:01:30.334Z,24.84
2018-08-24T02:06:22.811Z,24.74
2018-08-24T02:11:21.150Z,24.64
2018-08-24T02:16:13.726Z,24.57
2018-08-24T02:21:11.943Z,24.53
2018-08-24T02:26:04.702Z,24.47
2018-08-24T02:30:57.187Z,24.37
2018-08-24T02:35:49.715Z,24.25
2018-08-24T02:40:42.148Z,24.23
2018-08-24T02:45:34.562Z,24.22
2018-08-24T02:50:27.006Z,24.23
2018-08-24T02:55:19.485Z,24.08
2018-08-24T03:00:11.934Z,23.79
2018-08-24T03:05:04.588Z,23.75
2018-08-24T03:09:57.155Z,23.81
2018-08-24T03:14:49.776Z,23.68
2018-08-24T03:19:42.283Z,23.65
2018-08-24T03:24:34.977Z,23.74
2018-08-24T03:29:27.471Z,23.76
2018-08-24T03:34:19.946Z,23.73
2018-08-24T03:39:12.421Z,23.33
2018-08-24T03:44:05.279Z,23.03
2018-08-24T03:48:57.718Z,22.84
2018-08-24T03:53:50.252Z,22.65
2018-08-24T03:58:42.794Z,22.52
2018-08-24T04:03:35.443Z,22.46
2018-08-24T04:08:27.845Z,22.48
2018-08-24T04:13:20.874Z,22.47
2018-08-24T04:18:13.425Z,22.51
2018-08-24T04:23:06.115Z,22.57
2018-08-24T04:27:58.636Z,22.64
2018-08-24T04:32:51.099Z,22.79
2018-08-24T04:37:43.531Z,22.88
2018-08-24T04:42:36.108Z,23.03
2018-08-24T04:47:28.656Z,23.15
2018-08-24T04:52:21.614Z,23.21
2018-08-24T04:57:14.160Z,23.21
2018-08-24T05:02:06.793Z,23.23
2018-08-24T05:06:59.304Z,23.27
2018-08-24T05:11:51.823Z,23.28
2018-08-24T05:16:44.299Z,23.33
2018-08-24T05:21:37.072Z,23.33
2018-08-24T05:26:29.602Z,23.40
2018-08-24T05:31:22.363Z,23.50
2018-08-24T05:36:14.890Z,23.53
2018-08-24T05:41:07.468Z,23.45
2018-08-24T05:45:59.964Z,23.43
2018-08-24T05:50:52.621Z,23.41
2018-08-24T05:55:45.161Z,23.37
2018-08-24T06:00:39.902Z,23.32
2018-08-24T06:05:32.492Z,23.25
2018-08-24T06:10:25.089Z,23.18
2018-08-24T06:15:17.781Z,23.19
2018-08-24T06:20:10.484Z,23.29
2018-08-24T06:25:02.981Z,23.39
2018-08-24T06:29:55.499Z,23.54
2018-08-24T06:34:47.968Z,23.64
2018-08-24T06:39:40.944Z,23.79
2018-08-24T06:44:33.781Z,23.84
2018-08-24T06:49:26.307Z,23.90
2018-08-24T06:54:22.727Z,23.97
2018-08-24T06:59:15.310Z,24.12
2018-08-24T07:04:07.898Z,24.56
2018-08-24T07:09:00.431Z,24.59
2018-08-24T07:13:52.887Z,24.28
2018-08-24T07:18:45.480Z,24.10
2018-08-24T07:23:37.965Z,24.21
2018-08-24T07:28:30.644Z,24.79
2018-08-24T07:33:23.234Z,25.37
2018-08-24T07:38:15.760Z,25.70
2018-08-24T07:43:08.281Z,25.69
2018-08-24T07:48:01.114Z,25.60
2018-08-24T07:52:53.683Z,25.69
2018-08-24T07:57:46.212Z,25.48
2018-08-24T08:02:45.275Z,25.34
2018-08-24T08:07:37.726Z,25.00
2018-08-24T08:12:30.285Z,24.58
2018-08-24T08:17:22.938Z,24.29
2018-08-24T08:22:15.362Z,24.10
2018-08-24T08:27:07.905Z,23.96
2018-08-24T08:32:00.392Z,23.92
2018-08-24T08:36:53.025Z,23.91
2018-08-24T08:41:45.495Z,24.09
2018-08-24T08:46:38.052Z,24.37
2018-08-24T08:51:31.232Z,24.66
2018-08-24T08:56:23.827Z,24.86
2018-08-24T09:01:16.312Z,24.84
2018-08-24T09:06:09.014Z,24.89
2018-08-24T09:11:01.518Z,24.85
2018-08-24T09:15:54.236Z,24.78
2018-08-24T09:20:52.362Z,24.72
2018-08-24T09:25:50.958Z,24.71
2018-08-24T09:31:02.253Z,24.82
2018-08-24T09:35:54.795Z,24.98
2018-08-24T09:40:53.014Z,25.00
2018-08-24T09:45:45.520Z,24.93
2018-08-24T09:50:43.689Z,24.86
2018-08-24T09:55:39.386Z,24.87
2018-08-24T10:00:37.602Z,24.83
2018-08-24T10:05:35.871Z,24.90
2018-08-24T10:10:28.304Z,24.96
2018-08-24T10:15:20.880Z,24.90
2018-08-24T10:20:13.329Z,24.72
2018-08-24T10:25:05.799Z,24.60
2018-08-24T10:29:58.377Z,24.62
2018-08-24T10:34:50.831Z,24.67
2018-08-24T10:39:43.536Z,24.65
2018-08-24T10:44:36.000Z,24.58
2018-08-24T10:49:28.592Z,24.55
2018-08-24T10:54:21.054Z,24.47
2018-08-24T10:59:13.504Z,24.31
2018-08-24T11:04:08.026Z,24.10
2018-08-24T11:09:00.595Z,23.81
2018-08-24T11:13:53.098Z,23.57
2018-08-24T11:18:45.631Z,23.54
2018-08-24T11:23:38.233Z,23.27
2018-08-24T11:28:30.728Z,23.10
2018-08-24T11:33:23.302Z,23.03
2018-08-24T11:38:15.844Z,22.85
2018-08-24T11:43:08.394Z,22.80
2018-08-24T11:48:00.997Z,22.83
2018-08-24T11:52:53.602Z,22.87
2018-08-24T11:57:46.093Z,22.96
2018-08-24T12:02:38.686Z,22.82
2018-08-24T12:07:31.140Z,22.82
2018-08-24T12:12:23.685Z,23.01
2018-08-24T12:17:23.950Z,23.21
2018-08-24T12:22:16.397Z,23.32
2018-08-24T12:27:09.018Z,23.37
2018-08-24T12:32:01.405Z,23.40
2018-08-24T12:44:22.358Z,23.71
2018-08-24T12:49:15.425Z,23.93
2018-08-24T12:54:08.233Z,24.07
2018-08-24T12:59:00.733Z,24.21
2018-08-24T13:03:53.297Z,24.25
2018-08-24T13:08:45.818Z,23.91
2018-08-24T13:13:38.351Z,23.68
2018-08-24T13:18:30.895Z,23.53
2018-08-24T13:23:23.442Z,23.28
2018-08-24T13:28:19.466Z,23.11
2018-08-24T13:33:12.095Z,23.07
2018-08-24T13:38:05.095Z,23.18
2018-08-24T13:42:57.547Z,23.48
2018-08-24T13:47:50.082Z,23.75
2018-08-24T13:52:42.540Z,24.00
2018-08-24T13:57:35.016Z,24.23
2018-08-24T14:02:27.522Z,24.41
2018-08-24T14:07:20.068Z,24.52
2018-08-24T14:12:12.531Z,24.48
2018-08-24T14:17:05.079Z,24.60
2018-08-24T14:21:57.608Z,24.65
2018-08-24T14:26:50.149Z,24.87
2018-08-24T14:31:42.702Z,25.05
2018-08-24T14:36:35.171Z,25.22
2018-08-24T14:41:27.635Z,25.35
2018-08-24T14:46:20.138Z,25.51
2018-08-24T14:51:12.634Z,25.57
2018-08-24T14:56:05.346Z,25.39
2018-08-24T15:00:57.876Z,25.28
2018-08-24T15:05:50.496Z,25.21
2018-08-24T15:10:43.017Z,25.26
2018-08-24T15:15:35.582Z,25.34
2018-08-24T15:20:28.212Z,25.38
2018-08-24T15:25:20.799Z,25.24
2018-08-24T15:30:13.215Z,25.14
2018-08-24T15:35:06.140Z,24.82
2018-08-24T15:39:58.681Z,24.76
2018-08-24T15:44:51.212Z,24.81
2018-08-24T15:49:43.753Z,24.91
2018-08-24T15:54:36.287Z,24.90
2018-08-24T15:59:28.786Z,24.69
2018-08-24T16:04:21.226Z,24.64
2018-08-24T16:09:13.935Z,24.56
2018-08-24T16:14:06.382Z,24.33
2018-08-24T16:26:25.922Z,23.93
2018-08-24T16:31:18.367Z,23.81
2018-08-24T16:36:10.908Z,23.84
2018-08-24T16:41:03.408Z,23.70
2018-08-24T16:45:55.940Z,23.63
2018-08-24T16:50:48.710Z,23.51
2018-08-24T16:55:41.178Z,23.39
2018-08-24T17:00:33.764Z,23.38
2018-08-24T17:05:26.285Z,23.43
2018-08-24T17:10:18.738Z,23.48
2018-08-24T17:15:11.194Z,23.38
2018-08-24T17:20:04.374Z,23.48
2018-08-24T17:24:56.927Z,23.53
2018-08-24T17:29:49.415Z,23.45
2018-08-24T17:34:42.080Z,23.42
2018-08-24T17:39:34.572Z,23.42
2018-08-24T17:44:27.224Z,23.50
2018-08-24T17:49:19.740Z,23.52
2018-08-24T17:54:12.401Z,23.50
2018-08-24T17:59:04.952Z,23.43
2018-08-24T18:03:57.524Z,23.29
2018-08-24T18:08:50.326Z,23.22
2018-08-24T18:13:42.754Z,23.01
2018-08-24T18:18:35.287Z,22.96
2018-08-24T18:23:27.862Z,22.79
2018-08-24T18:28:20.441Z,22.70
2018-08-24T18:33:13.023Z,22.61
2018-08-24T18:38:05.488Z,22.46
2018-08-24T18:42:57.960Z,22.41
2018-08-24T18:47:50.491Z,22.41
2018-08-24T18:52:43.001Z,22.31
2018-08-24T18:57:35.462Z,22.21
2018-08-24T19:02:27.970Z,22.15
2018-08-24T19:07:20.428Z,22.03
2018-08-24T19:12:18.827Z,22.02
2018-08-24T19:17:16.881Z,21.94
2018-08-24T19:22:09.493Z,21.84
2018-08-24T19:27:02.061Z,21.79
2018-08-24T19:31:54.506Z,21.80
2018-08-24T19:36:46.968Z,21.68
2018-08-24T19:41:45.562Z,21.64
2018-08-24T19:46:38.028Z,21.64
2018-08-24T19:51:30.536Z,21.54
2018-08-24T19:56:22.966Z,21.45
2018-08-24T20:01:15.746Z,21.34
2018-08-24T20:06:13.902Z,21.24
2018-08-24T20:11:07.011Z,21.24
2018-08-24T20:16:05.423Z,21.32
2018-08-24T20:20:57.858Z,21.36
2018-08-24T20:25:50.423Z,21.28
2018-08-24T20:30:43.032Z,21.31
2018-08-24T20:35:36.672Z,21.34
2018-08-24T20:40:29.441Z,21.34
2018-08-24T20:45:21.871Z,21.31
2018-08-24T20:50:14.374Z,21.28
2018-08-24T20:55:06.860Z,21.27
2018-08-24T20:59:59.464Z,21.30
2018-08-24T21:04:51.946Z,21.26
2018-08-24T21:09:44.420Z,21.25
2018-08-24T21:14:36.935Z,21.28
2018-08-24T21:19:29.433Z,21.26
2018-08-24T21:24:21.928Z,21.22
2018-08-24T21:29:14.458Z,21.19
2018-08-24T21:34:06.973Z,21.16
2018-08-24T21:38:59.429Z,21.07
2018-08-24T21:43:52.095Z,21.00
2018-08-24T21:48:44.692Z,20.94
2018-08-24T21:53:37.333Z,20.87
2018-08-24T21:58:29.826Z,20.83
2018-08-24T22:03:22.257Z,20.84
2018-08-24T22:08:14.808Z,20.73
2018-08-24T22:13:07.323Z,20.68
2018-08-24T22:17:59.948Z,20.63
2018-08-24T22:22:52.448Z,20.58
2018-08-24T22:27:44.937Z,20.52
2018-08-24T22:32:37.458Z,20.50
2018-08-24T22:37:29.964Z,20.47
2018-08-24T22:42:22.448Z,20.37
2018-08-24T22:47:14.893Z,20.33
2018-08-24T22:52:07.360Z,20.29
2018-08-24T22:56:59.888Z,20.21
2018-08-24T23:01:52.353Z,20.21
2018-08-24T23:06:44.828Z,20.22
2018-08-24T23:11:37.415Z,20.22
2018-08-24T23:16:29.843Z,20.23
2018-08-24T23:21:22.353Z,20.13
2018-08-24T23:26:14.778Z,20.07
2018-08-24T23:31:07.332Z,20.05
2018-08-24T23:35:59.865Z,20.11
2018-08-24T23:40:52.369Z,20.17
2018-08-24T23:45:45.075Z,20.07
2018-08-24T23:50:37.619Z,20.00
2018-08-24T23:55:30.075Z,20.01
